Time;durP1;ratioP1;P1;durP2;ratioP2;P2;SDS_P1;SDS_P2;PMS_P1;PMS_P2;Temp;Humidity;BMP_temperature;BMP_pressure;BME280_temperature;BME280_humidity;BME280_pressure;Samples;Min_cycle;Max_cycle;Signal;HPM_P1;HPM_P2
2021/10/16 00:01:43;;;;;;;19.83;12.52;;;22.60;37.00;;;;;;4779575;30;20150;-54
2021/10/16 00:04:10;;;;;;;16.45;11.82;;;22.60;37.00;;;;;;4781218;29;20174;-55
2021/10/16 00:06:37;;;;;;;14.35;10.75;;;22.60;37.00;;;;;;4781202;29;20494;-55
2021/10/16 00:09:05;;;;;;;18.10;11.52;;;22.60;37.00;;;;;;4772141;29;20142;-54
2021/10/16 00:11:32;;;;;;;15.32;10.35;;;22.60;37.00;;;;;;4780145;29;20130;-55
2021/10/16 00:13:59;;;;;;;17.10;11.38;;;22.70;37.00;;;;;;4780314;29;20116;-55
2021/10/16 00:16:26;;;;;;;17.98;11.88;;;22.60;36.90;;;;;;4778822;30;20087;-54
2021/10/16 00:18:54;;;;;;;17.50;11.77;;;22.70;37.00;;;;;;4771573;29;20683;-54
2021/10/16 00:21:21;;;;;;;14.90;11.27;;;22.60;36.90;;;;;;4780861;29;20395;-54
2021/10/16 00:23:48;;;;;;;15.63;11.15;;;22.60;36.90;;;;;;4779503;29;20086;-55
2021/10/16 00:26:16;;;;;;;19.02;11.70;;;22.60;36.90;;;;;;4780279;29;20059;-54
2021/10/16 00:28:43;;;;;;;15.65;11.48;;;22.60;36.90;;;;;;4772334;29;20087;-55
2021/10/16 00:31:10;;;;;;;15.82;11.05;;;22.60;36.90;;;;;;4780521;29;20138;-55
2021/10/16 00:33:37;;;;;;;19.80;11.93;;;22.60;37.00;;;;;;4780617;29;20475;-55
2021/10/16 00:36:04;;;;;;;18.42;12.13;;;22.60;37.00;;;;;;4780438;29;20517;-55
2021/10/16 00:38:31;;;;;;;16.48;11.07;;;22.60;36.90;;;;;;4774641;29;20135;-55
2021/10/16 00:40:58;;;;;;;15.10;10.95;;;22.60;36.90;;;;;;4778192;29;20051;-54
2021/10/16 00:43:26;;;;;;;14.90;11.38;;;22.60;36.90;;;;;;4779989;29;20087;-53
2021/10/16 00:45:53;;;;;;;16.23;10.65;;;22.60;37.00;;;;;;4780083;29;20082;-54
2021/10/16 00:48:20;;;;;;;16.10;10.93;;;22.60;36.90;;;;;;4772813;29;20612;-54
2021/10/16 00:50:47;;;;;;;15.77;11.05;;;22.60;36.90;;;;;;4778650;29;20130;-55
2021/10/16 00:53:16;;;;;;;15.38;11.15;;;22.60;37.00;;;;;;4779902;29;20159;-55
2021/10/16 00:55:44;;;;;;;17.43;12.00;;;22.60;37.00;;;;;;4782016;29;20066;-54
2021/10/16 00:58:11;;;;;;;13.73;10.70;;;22.50;36.90;;;;;;4778537;29;20063;-55
2021/10/16 01:00:38;;;;;;;14.77;11.02;;;22.60;37.00;;;;;;4781332;29;20130;-54
2021/10/16 01:03:06;;;;;;;17.25;11.50;;;22.50;36.90;;;;;;4784013;29;20055;-55
2021/10/16 01:05:34;;;;;;;15.55;10.63;;;22.50;37.00;;;;;;4783186;29;20066;-55
2021/10/16 01:08:08;;;;;;;15.32;10.52;;;22.50;37.00;;;;;;4777827;29;20555;-50
2021/10/16 01:10:35;;;;;;;12.48;9.82;;;22.50;37.00;;;;;;4781642;29;20513;-54
2021/10/16 01:13:02;;;;;;;13.75;10.02;;;22.50;37.00;;;;;;4783422;29;20408;-54
2021/10/16 01:15:32;;;;;;;16.52;11.77;;;22.50;37.00;;;;;;4781385;30;20105;-53
2021/10/16 01:18:00;;;;;;;14.90;10.30;;;22.50;37.00;;;;;;4779129;29;20059;-56
2021/10/16 01:20:29;;;;;;;14.05;10.35;;;22.50;37.00;;;;;;4781346;29;20146;-54
2021/10/16 01:22:59;;;;;;;14.30;10.30;;;22.50;37.00;;;;;;4782677;29;20529;-54
2021/10/16 01:25:26;;;;;;;14.93;10.48;;;22.50;37.00;;;;;;4782769;29;20082;-57
2021/10/16 01:27:55;;;;;;;12.82;10.07;;;22.40;36.90;;;;;;4779599;29;20257;-54
2021/10/16 01:30:24;;;;;;;15.57;11.02;;;22.50;37.00;;;;;;4778177;29;20282;-54
2021/10/16 01:32:51;;;;;;;12.82;10.38;;;22.50;37.00;;;;;;4781293;29;20134;-55
2021/10/16 01:35:19;;;;;;;12.60;10.48;;;22.50;36.90;;;;;;4783312;29;20043;-55
2021/10/16 01:37:48;;;;;;;14.32;10.18;;;22.50;36.90;;;;;;4779969;29;20143;-54
2021/10/16 01:40:16;;;;;;;14.88;10.57;;;22.40;36.90;;;;;;4778072;29;20051;-55
2021/10/16 01:42:44;;;;;;;14.73;11.07;;;22.40;36.90;;;;;;4782395;29;20051;-55
2021/10/16 01:45:14;;;;;;;14.32;10.25;;;22.40;36.90;;;;;;4782501;29;20083;-55
2021/10/16 01:47:52;;;;;;;15.65;9.82;;;22.40;36.90;;;;;;4779017;29;20618;-52
2021/10/16 01:50:21;;;;;;;13.93;10.02;;;22.40;36.90;;;;;;4777880;29;20111;-54
2021/10/16 01:52:48;;;;;;;12.07;9.80;;;22.40;36.90;;;;;;4783343;29;20051;-54
2021/10/16 01:55:16;;;;;;;13.13;9.77;;;22.40;36.90;;;;;;4781856;29;20497;-54
2021/10/16 01:57:44;;;;;;;13.30;10.05;;;22.50;36.90;;;;;;4778473;29;20339;-55
2021/10/16 02:00:12;;;;;;;17.20;10.70;;;22.50;36.90;;;;;;4778512;29;20066;-55
2021/10/16 02:02:39;;;;;;;12.80;9.43;;;22.50;36.80;;;;;;4782851;29;20126;-54
2021/10/16 02:05:07;;;;;;;14.57;9.77;;;22.40;36.80;;;;;;4782781;29;20509;-53
2021/10/16 02:07:35;;;;;;;13.85;9.35;;;22.50;36.90;;;;;;4778874;29;20554;-55
2021/10/16 02:10:02;;;;;;;13.05;10.13;;;22.50;36.80;;;;;;4779089;29;20126;-55
2021/10/16 02:12:29;;;;;;;12.88;9.20;;;22.50;36.80;;;;;;4782937;29;20353;-52
2021/10/16 02:14:56;;;;;;;13.95;10.52;;;22.40;36.70;;;;;;4782284;29;20085;-54
2021/10/16 02:17:24;;;;;;;14.65;9.45;;;22.50;36.80;;;;;;4779573;29;20138;-53
2021/10/16 02:19:51;;;;;;;13.48;9.80;;;22.40;36.80;;;;;;4776659;29;20058;-53
2021/10/16 02:22:18;;;;;;;13.35;9.70;;;22.40;36.80;;;;;;4782280;29;20138;-55
2021/10/16 02:24:45;;;;;;;11.73;9.25;;;22.40;36.80;;;;;;4782261;29;20225;-55
2021/10/16 02:27:12;;;;;;;12.40;9.13;;;22.40;36.80;;;;;;4782414;29;20138;-55
2021/10/16 02:29:40;;;;;;;14.18;9.77;;;22.40;36.80;;;;;;4774648;29;20385;-55
2021/10/16 02:32:07;;;;;;;12.57;8.98;;;22.40;36.80;;;;;;4781987;29;20059;-55
2021/10/16 02:34:36;;;;;;;10.70;8.45;;;22.40;36.80;;;;;;4782004;29;20519;-54
2021/10/16 02:37:03;;;;;;;13.48;9.60;;;22.40;36.90;;;;;;4781104;30;20090;-53
2021/10/16 02:39:30;;;;;;;12.13;9.05;;;22.40;36.90;;;;;;4773449;29;20163;-53
2021/10/16 02:41:59;;;;;;;13.55;8.80;;;22.40;36.90;;;;;;4781748;29;20138;-53
2021/10/16 02:44:30;;;;;;;12.98;9.13;;;22.40;36.90;;;;;;4781661;29;20082;-55
2021/10/16 02:46:57;;;;;;;11.50;9.60;;;22.40;36.90;;;;;;4782255;29;20091;-53
2021/10/16 02:49:24;;;;;;;10.90;8.70;;;22.30;36.80;;;;;;4773854;29;20151;-55
2021/10/16 02:51:51;;;;;;;11.95;9.25;;;22.40;36.90;;;;;;4782373;29;20083;-55
2021/10/16 02:54:18;;;;;;;12.45;8.90;;;22.40;36.90;;;;;;4781858;29;20102;-54
2021/10/16 02:56:46;;;;;;;12.55;8.77;;;22.40;36.90;;;;;;4781392;29;20671;-55
2021/10/16 02:59:13;;;;;;;11.32;8.55;;;22.40;36.90;;;;;;4774286;29;20087;-56
2021/10/16 03:01:40;;;;;;;12.63;9.20;;;22.30;36.80;;;;;;4781608;29;20450;-55
2021/10/16 03:04:08;;;;;;;13.73;9.35;;;22.30;36.80;;;;;;4782051;29;20088;-53
2021/10/16 03:06:35;;;;;;;12.50;9.05;;;22.30;36.80;;;;;;4781351;29;20505;-58
2021/10/16 03:09:03;;;;;;;10.68;8.13;;;22.30;36.80;;;;;;4774706;29;20575;-55
2021/10/16 03:11:30;;;;;;;14.60;8.88;;;22.30;36.80;;;;;;4781546;29;20398;-55
2021/10/16 03:14:01;;;;;;;11.32;8.95;;;22.30;36.70;;;;;;4781725;29;20055;-55
2021/10/16 03:16:29;;;;;;;9.98;8.05;;;22.30;36.70;;;;;;4781661;29;20055;-53
2021/10/16 03:18:56;;;;;;;12.05;7.85;;;22.30;36.70;;;;;;4771999;29;20055;-55
2021/10/16 03:21:23;;;;;;;13.40;9.30;;;22.30;36.70;;;;;;4782100;29;20138;-52
2021/10/16 03:23:50;;;;;;;11.93;9.23;;;22.30;36.70;;;;;;4782755;29;20301;-55
2021/10/16 03:26:17;;;;;;;10.63;7.53;;;22.30;36.70;;;;;;4782336;29;20227;-55
2021/10/16 03:28:44;;;;;;;12.63;8.50;;;22.30;36.60;;;;;;4773701;29;20138;-54
2021/10/16 03:31:11;;;;;;;10.93;8.38;;;22.30;36.70;;;;;;4781688;29;20051;-55
2021/10/16 03:33:39;;;;;;;11.00;8.05;;;22.30;36.70;;;;;;4782822;29;20051;-55
2021/10/16 03:36:06;;;;;;;11.35;9.32;;;22.30;36.70;;;;;;4782766;29;20158;-54
2021/10/16 03:38:33;;;;;;;11.88;8.57;;;22.30;36.60;;;;;;4775744;29;20179;-55
2021/10/16 03:41:00;;;;;;;18.27;8.23;;;22.30;36.60;;;;;;4776574;30;20048;-55
2021/10/16 03:43:27;;;;;;;10.77;8.40;;;22.30;36.60;;;;;;4764138;30;20051;-54
2021/10/16 03:45:54;;;;;;;10.82;7.82;;;22.30;36.60;;;;;;4763027;30;20057;-55
2021/10/16 03:48:21;;;;;;;11.55;8.52;;;22.30;36.60;;;;;;4766169;29;20091;-55
2021/10/16 03:50:49;;;;;;;9.85;8.45;;;22.30;36.60;;;;;;4779788;29;20149;-54
2021/10/16 03:53:16;;;;;;;10.13;7.75;;;22.30;36.60;;;;;;4781883;29;20061;-53
2021/10/16 03:55:44;;;;;;;11.73;8.38;;;22.30;36.60;;;;;;4781743;29;20559;-53
2021/10/16 03:58:12;;;;;;;9.98;8.10;;;22.30;36.60;;;;;;4775055;29;20514;-55
2021/10/16 04:00:39;;;;;;;11.23;8.27;;;22.30;36.60;;;;;;4776453;30;20130;-55
2021/10/16 04:03:06;;;;;;;11.50;8.07;;;22.30;36.60;;;;;;4780365;29;20489;-54
2021/10/16 04:05:34;;;;;;;10.15;7.68;;;22.30;36.60;;;;;;4781764;29;20047;-53
2021/10/16 04:08:02;;;;;;;9.52;7.28;;;22.30;36.60;;;;;;4775517;29;20227;-54
2021/10/16 04:10:31;;;;;;;9.13;7.40;;;22.30;36.60;;;;;;4779383;29;20134;-54
2021/10/16 04:12:58;;;;;;;9.32;7.57;;;22.30;36.60;;;;;;4781544;29;20082;-55
2021/10/16 04:15:25;;;;;;;11.13;8.07;;;22.30;36.60;;;;;;4781602;29;20158;-55
2021/10/16 04:17:52;;;;;;;12.70;7.45;;;22.30;36.60;;;;;;4774181;29;20180;-54
2021/10/16 04:20:21;;;;;;;9.40;7.50;;;22.30;36.60;;;;;;4775229;30;20053;-54
2021/10/16 04:22:48;;;;;;;10.25;7.50;;;22.30;36.60;;;;;;4779661;29;20090;-55
2021/10/16 04:25:16;;;;;;;9.43;7.60;;;22.30;36.60;;;;;;4780643;29;20090;-55
2021/10/16 04:27:46;;;;;;;9.57;7.45;;;22.30;36.60;;;;;;4776202;29;20055;-55
2021/10/16 04:30:13;;;;;;;10.63;6.97;;;22.30;36.60;;;;;;4775498;29;20086;-54
2021/10/16 04:32:40;;;;;;;10.75;7.90;;;22.20;36.50;;;;;;4780079;29;20138;-52
2021/10/16 04:35:08;;;;;;;10.60;7.72;;;22.30;36.60;;;;;;4780619;29;20313;-53
2021/10/16 04:37:36;;;;;;;9.48;7.70;;;22.20;36.50;;;;;;4776483;29;20058;-54
2021/10/16 04:40:20;;;;;;;9.55;7.15;;;22.30;36.60;;;;;;4776654;29;20137;-53
2021/10/16 04:42:49;;;;;;;9.57;7.47;;;22.20;36.60;;;;;;4779771;29;20059;-54
2021/10/16 04:45:17;;;;;;;9.50;8.00;;;22.20;36.50;;;;;;4780573;29;20090;-55
2021/10/16 04:47:44;;;;;;;9.73;7.32;;;22.20;36.50;;;;;;4776048;29;20217;-55
2021/10/16 04:50:12;;;;;;;9.82;7.50;;;22.20;36.50;;;;;;4775194;29;20087;-55
2021/10/16 04:52:40;;;;;;;9.73;7.50;;;22.20;36.50;;;;;;4780065;29;20519;-54
2021/10/16 04:55:07;;;;;;;11.15;7.57;;;22.20;36.50;;;;;;4780767;29;20154;-54
2021/10/16 04:57:34;;;;;;;9.98;7.18;;;22.20;36.50;;;;;;4776613;29;20051;-54
2021/10/16 05:00:02;;;;;;;9.70;7.60;;;22.20;36.40;;;;;;4774990;29;20142;-56
2021/10/16 05:02:29;;;;;;;8.45;7.32;;;22.20;36.40;;;;;;4781026;29;20086;-54
2021/10/16 05:04:57;;;;;;;9.30;7.55;;;22.20;36.40;;;;;;4780524;29;20083;-54
2021/10/16 05:07:24;;;;;;;9.70;7.18;;;22.20;36.30;;;;;;4778412;29;20051;-55
2021/10/16 05:09:51;;;;;;;8.50;7.00;;;22.20;36.10;;;;;;4773856;29;20047;-55
2021/10/16 05:12:19;;;;;;;9.10;7.38;;;22.20;35.90;;;;;;4780223;29;20051;-55
2021/10/16 05:14:46;;;;;;;8.90;7.30;;;22.30;35.70;;;;;;4780451;29;20059;-54
2021/10/16 05:17:13;;;;;;;9.63;7.55;;;22.30;35.60;;;;;;4780140;29;20055;-55
2021/10/16 05:19:40;;;;;;;8.95;6.97;;;22.30;35.50;;;;;;4773181;29;20142;-55
2021/10/16 05:22:08;;;;;;;10.02;6.68;;;22.30;35.40;;;;;;4780286;29;20087;-53
2021/10/16 05:24:35;;;;;;;7.75;6.30;;;22.40;35.30;;;;;;4780066;29;20059;-53
2021/10/16 05:27:03;;;;;;;7.80;6.90;;;22.30;35.10;;;;;;4780129;29;20059;-53
2021/10/16 05:29:30;;;;;;;8.57;6.82;;;22.30;35.00;;;;;;4771642;29;20063;-55
2021/10/16 05:31:57;;;;;;;7.40;6.63;;;22.30;34.90;;;;;;4779885;29;20081;-54
2021/10/16 05:34:24;;;;;;;9.68;6.20;;;22.30;34.90;;;;;;4779815;29;20055;-54
2021/10/16 05:36:52;;;;;;;7.80;6.50;;;22.40;34.80;;;;;;4780362;29;20062;-54
2021/10/16 05:39:19;;;;;;;7.03;6.32;;;22.40;34.70;;;;;;4771960;29;20333;-55
2021/10/16 05:41:48;;;;;;;7.28;6.30;;;22.40;34.60;;;;;;4781951;29;20086;-56
2021/10/16 05:44:16;;;;;;;7.00;5.70;;;22.50;34.60;;;;;;4783159;29;20128;-53
2021/10/16 05:46:43;;;;;;;7.15;5.97;;;22.50;34.50;;;;;;4784194;29;20155;-54
2021/10/16 05:49:10;;;;;;;7.53;6.30;;;22.60;34.50;;;;;;4773680;29;20055;-53
2021/10/16 05:51:37;;;;;;;8.77;7.15;;;22.60;34.30;;;;;;4782782;29;20086;-54
2021/10/16 05:54:04;;;;;;;8.80;6.55;;;22.70;34.30;;;;;;4783257;29;20198;-55
2021/10/16 05:56:31;;;;;;;8.50;6.40;;;22.70;34.20;;;;;;4782961;29;20138;-55
2021/10/16 05:58:59;;;;;;;8.52;6.25;;;22.80;34.20;;;;;;4778641;29;20055;-55
2021/10/16 06:01:27;;;;;;;10.07;6.30;;;22.80;34.00;;;;;;4782636;29;20143;-54
2021/10/16 06:03:54;;;;;;;8.35;6.38;;;22.90;34.00;;;;;;4783228;29;20047;-54
2021/10/16 06:06:21;;;;;;;7.00;6.05;;;22.90;33.90;;;;;;4783520;29;20517;-54
2021/10/16 06:08:48;;;;;;;7.22;5.90;;;23.00;33.90;;;;;;4773903;29;20055;-54
2021/10/16 06:11:15;;;;;;;7.75;5.63;;;23.00;33.70;;;;;;4783214;29;20142;-55
2021/10/16 06:13:43;;;;;;;7.22;6.00;;;23.00;33.60;;;;;;4782565;29;20057;-55
2021/10/16 06:16:10;;;;;;;7.72;6.28;;;23.10;34.20;;;;;;4782574;29;20158;-54
2021/10/16 06:18:40;;;;;;;6.32;5.72;;;23.20;33.60;;;;;;4775112;29;20521;-53
2021/10/16 06:21:07;;;;;;;6.90;5.57;;;23.20;33.50;;;;;;4777347;29;20087;-55
2021/10/16 06:23:34;;;;;;;6.70;5.82;;;23.20;33.40;;;;;;4764056;30;20593;-54
2021/10/16 06:26:01;;;;;;;6.22;5.63;;;23.30;33.40;;;;;;4763926;30;20083;-52
2021/10/16 06:28:28;;;;;;;6.00;5.40;;;23.30;33.30;;;;;;4764029;29;20098;-53
2021/10/16 06:30:56;;;;;;;6.28;5.40;;;23.40;33.30;;;;;;4780616;29;20051;-54
2021/10/16 06:33:24;;;;;;;8.23;5.30;;;23.40;33.30;;;;;;4782293;29;20061;-55
2021/10/16 06:35:53;;;;;;;5.97;5.38;;;23.50;33.30;;;;;;4781729;29;20087;-54
2021/10/16 06:38:21;;;;;;;7.35;5.90;;;23.50;33.20;;;;;;4775976;29;20614;-55
2021/10/16 06:40:48;;;;;;;8.07;6.63;;;23.50;33.10;;;;;;4780389;29;20061;-53
2021/10/16 06:43:15;;;;;;;7.85;5.75;;;23.60;33.10;;;;;;4781668;29;20063;-55
2021/10/16 06:45:43;;;;;;;6.75;6.03;;;23.60;33.00;;;;;;4782734;29;20413;-54
2021/10/16 06:48:10;;;;;;;6.40;5.63;;;23.60;33.00;;;;;;4776610;29;20051;-53
2021/10/16 06:50:37;;;;;;;5.93;5.30;;;23.70;33.00;;;;;;4779042;29;20078;-55
2021/10/16 06:53:04;;;;;;;7.53;5.93;;;23.70;32.90;;;;;;4781058;29;20090;-55
2021/10/16 06:55:31;;;;;;;6.93;5.90;;;23.80;33.00;;;;;;4781884;29;20171;-55
2021/10/16 06:57:58;;;;;;;6.60;5.07;;;23.80;32.90;;;;;;4778587;29;20055;-54
2021/10/16 07:00:25;;;;;;;6.50;5.57;;;23.80;32.80;;;;;;4777803;29;20146;-55
2021/10/16 07:02:52;;;;;;;6.72;5.72;;;23.90;32.80;;;;;;4781345;29;20138;-53
2021/10/16 07:05:19;;;;;;;7.22;5.53;;;23.90;32.80;;;;;;4782276;29;20616;-55
2021/10/16 07:07:46;;;;;;;7.00;5.65;;;23.90;32.80;;;;;;4777873;29;20051;-55
2021/10/16 07:10:14;;;;;;;6.03;5.38;;;24.00;32.70;;;;;;4776639;29;20147;-55
2021/10/16 07:12:41;;;;;;;6.18;5.57;;;24.10;32.80;;;;;;4781510;29;20643;-55
2021/10/16 07:15:08;;;;;;;7.32;5.75;;;24.10;32.70;;;;;;4781571;29;20227;-55
2021/10/16 07:17:37;;;;;;;6.88;6.18;;;24.10;32.70;;;;;;4777923;29;20137;-55
2021/10/16 07:20:05;;;;;;;7.93;6.18;;;24.20;32.70;;;;;;4777525;29;20375;-55
2021/10/16 07:22:32;;;;;;;8.50;6.68;;;24.20;32.70;;;;;;4780809;29;20135;-55
2021/10/16 07:25:00;;;;;;;7.20;6.30;;;24.30;32.60;;;;;;4781895;29;20055;-55
2021/10/16 07:27:27;;;;;;;7.13;5.18;;;24.30;32.60;;;;;;4777813;29;20083;-53
2021/10/16 07:29:54;;;;;;;7.70;5.93;;;24.30;32.60;;;;;;4770933;30;20491;-54
2021/10/16 07:32:21;;;;;;;8.48;6.22;;;24.40;32.60;;;;;;4763764;30;20139;-55
2021/10/16 07:34:48;;;;;;;6.85;5.78;;;24.40;32.60;;;;;;4763497;30;20083;-55
2021/10/16 07:37:15;;;;;;;6.10;5.45;;;24.40;32.60;;;;;;4761896;30;20116;-54
2021/10/16 07:39:42;;;;;;;6.75;5.63;;;24.50;32.60;;;;;;4771253;30;20061;-54
2021/10/16 07:42:09;;;;;;;7.28;6.03;;;24.50;32.60;;;;;;4779824;30;20490;-53
2021/10/16 07:44:36;;;;;;;6.05;5.05;;;24.50;32.50;;;;;;4780800;29;20322;-56
2021/10/16 07:47:03;;;;;;;6.00;4.88;;;24.60;32.60;;;;;;4780897;29;20737;-55
2021/10/16 07:49:31;;;;;;;6.68;5.30;;;24.60;32.50;;;;;;4771789;29;20491;-56
2021/10/16 07:51:58;;;;;;;5.82;5.10;;;24.60;32.50;;;;;;4780088;30;20081;-55
2021/10/16 07:54:25;;;;;;;6.95;5.18;;;24.70;32.50;;;;;;4779997;29;20146;-55
2021/10/16 07:56:52;;;;;;;5.30;4.75;;;24.70;32.50;;;;;;4780434;29;20058;-55
2021/10/16 07:59:20;;;;;;;6.63;4.53;;;24.70;32.50;;;;;;4772327;29;20124;-55
2021/10/16 08:01:47;;;;;;;5.88;5.15;;;24.80;32.50;;;;;;4781180;29;20082;-55
2021/10/16 08:04:14;;;;;;;7.68;5.50;;;24.80;32.40;;;;;;4781112;29;20112;-56
2021/10/16 08:06:41;;;;;;;5.85;5.22;;;24.90;32.50;;;;;;4780886;29;20430;-54
2021/10/16 08:09:08;;;;;;;4.55;4.10;;;24.90;32.40;;;;;;4772353;29;20055;-55
2021/10/16 08:11:36;;;;;;;6.10;4.47;;;24.90;32.40;;;;;;4781130;29;20420;-55
2021/10/16 08:14:03;;;;;;;5.55;4.50;;;24.90;32.40;;;;;;4780405;29;20059;-54
2021/10/16 08:16:31;;;;;;;5.53;4.85;;;25.00;32.40;;;;;;4780250;29;20293;-55
2021/10/16 08:18:58;;;;;;;5.25;4.32;;;25.00;32.40;;;;;;4767020;29;20142;-55
2021/10/16 08:21:25;;;;;;;4.70;4.20;;;25.10;32.40;;;;;;4780320;29;20047;-54
2021/10/16 08:23:52;;;;;;;4.47;4.07;;;25.10;32.40;;;;;;4778861;29;20183;-56
2021/10/16 08:26:19;;;;;;;4.53;4.13;;;25.10;32.30;;;;;;4780202;29;20138;-53
2021/10/16 08:28:48;;;;;;;4.88;4.20;;;25.10;32.30;;;;;;4773453;29;20063;-53
2021/10/16 08:31:16;;;;;;;4.53;4.07;;;25.20;32.30;;;;;;4779779;29;20142;-55
2021/10/16 08:33:43;;;;;;;4.85;4.38;;;25.20;32.30;;;;;;4779975;29;20061;-56
2021/10/16 08:36:12;;;;;;;4.68;4.20;;;25.20;32.20;;;;;;4780268;29;20058;-55
2021/10/16 08:38:40;;;;;;;4.50;4.10;;;25.30;32.30;;;;;;4771562;29;20047;-55
2021/10/16 08:41:10;;;;;;;4.75;4.18;;;25.30;32.20;;;;;;4779767;29;20469;-54
2021/10/16 08:43:37;;;;;;;4.05;3.65;;;25.30;32.10;;;;;;4778997;29;20120;-58
2021/10/16 08:46:04;;;;;;;3.95;3.65;;;25.40;32.20;;;;;;4780090;29;20061;-55
2021/10/16 08:48:32;;;;;;;4.20;3.83;;;25.40;32.10;;;;;;4773132;29;20059;-56
2021/10/16 08:51:00;;;;;;;3.78;3.47;;;25.40;32.10;;;;;;4777440;29;20134;-53
2021/10/16 08:53:28;;;;;;;4.45;4.05;;;25.40;32.00;;;;;;4780336;29;20476;-55
2021/10/16 08:55:55;;;;;;;3.80;3.47;;;25.40;32.00;;;;;;4779940;29;20147;-55
2021/10/16 08:58:22;;;;;;;4.35;3.67;;;25.50;32.00;;;;;;4774830;29;20055;-55
2021/10/16 09:00:54;;;;;;;4.07;3.65;;;25.60;32.10;;;;;;4777511;29;20166;-55
2021/10/16 09:03:45;;;;;;;4.40;3.83;;;25.50;32.00;;;;;;4779068;29;20059;-53
2021/10/16 09:06:25;;;;;;;3.83;3.47;;;25.60;32.00;;;;;;4779325;29;20047;-55
2021/10/16 09:09:00;;;;;;;4.20;3.85;;;25.60;32.00;;;;;;4771383;29;20627;-55
2021/10/16 09:11:39;;;;;;;3.88;3.42;;;25.70;32.10;;;;;;4778864;29;20146;-56
2021/10/16 09:14:09;;;;;;;3.78;3.38;;;25.70;32.00;;;;;;4780098;29;20055;-56
2021/10/16 09:16:42;;;;;;;4.07;3.58;;;25.70;32.00;;;;;;4782118;29;20062;-54
2021/10/16 09:19:16;;;;;;;4.43;4.03;;;25.70;32.60;;;;;;4775445;29;20570;-54
2021/10/16 09:21:50;;;;;;;3.60;3.30;;;25.70;32.00;;;;;;4781865;29;20079;-56
2021/10/16 09:24:25;;;;;;;3.70;3.40;;;25.80;32.00;;;;;;4770507;29;20113;-55
2021/10/16 09:26:57;;;;;;;2.92;2.67;;;25.80;32.00;;;;;;4769006;30;20051;-54
2021/10/16 09:29:28;;;;;;;3.53;3.22;;;25.80;32.00;;;;;;4764096;29;20410;-56
2021/10/16 09:32:01;;;;;;;3.10;2.90;;;25.80;32.00;;;;;;4773241;29;20044;-52
2021/10/16 09:34:31;;;;;;;3.60;3.30;;;25.80;32.00;;;;;;4775996;29;20099;-55
2021/10/16 09:37:07;;;;;;;3.20;2.90;;;25.90;32.10;;;;;;4773654;29;20056;-55
2021/10/16 09:39:37;;;;;;;3.60;3.30;;;25.90;32.00;;;;;;4772208;29;20066;-57
2021/10/16 09:42:06;;;;;;;3.35;3.05;;;25.90;32.00;;;;;;4783938;29;20396;-55
2021/10/16 09:44:35;;;;;;;2.95;2.75;;;26.00;32.10;;;;;;4773598;29;20058;-54
2021/10/16 09:47:15;;;;;;;2.88;2.53;;;26.00;32.00;;;;;;4783985;29;20597;-54
2021/10/16 09:49:48;;;;;;;3.22;2.92;;;26.00;32.00;;;;;;4771879;29;20060;-54
2021/10/16 09:52:17;;;;;;;2.78;2.58;;;26.00;32.00;;;;;;4771548;29;20083;-55
2021/10/16 09:54:46;;;;;;;2.95;2.72;;;26.10;32.00;;;;;;4773408;29;20506;-55
2021/10/16 09:57:19;;;;;;;3.05;2.75;;;26.10;32.00;;;;;;4774077;30;20493;-56
2021/10/16 09:59:46;;;;;;;2.60;2.40;;;26.10;32.00;;;;;;4765999;29;20362;-54
2021/10/16 10:02:14;;;;;;;2.95;2.75;;;26.20;32.00;;;;;;4773789;30;20094;-55
2021/10/16 10:04:45;;;;;;;2.70;2.50;;;26.20;32.00;;;;;;4773720;30;20139;-55
2021/10/16 10:07:14;;;;;;;2.80;2.60;;;26.20;32.00;;;;;;4773892;30;20403;-54
2021/10/16 10:09:43;;;;;;;2.90;2.70;;;26.20;32.00;;;;;;4766283;29;20335;-56
2021/10/16 10:12:12;;;;;;;2.97;2.72;;;26.20;32.00;;;;;;4773518;30;20064;-56
2021/10/16 10:14:47;;;;;;;2.80;2.53;;;26.20;31.90;;;;;;4771525;29;20593;-55
2021/10/16 10:17:30;;;;;;;2.70;2.50;;;26.30;32.00;;;;;;4771979;29;20044;-58
2021/10/16 10:20:06;;;;;;;2.85;2.65;;;26.30;32.00;;;;;;4766376;30;20414;-54
2021/10/16 10:22:34;;;;;;;2.90;2.55;;;26.30;32.00;;;;;;4782621;29;20765;-55
2021/10/16 10:25:12;;;;;;;2.90;2.45;;;26.30;32.00;;;;;;4782819;29;20047;-55
2021/10/16 10:27:46;;;;;;;2.92;2.58;;;26.40;32.00;;;;;;4778079;29;21570;-53
2021/10/16 10:30:42;;;;;;;2.72;2.53;;;26.40;32.00;;;;;;4770613;29;20055;-55
2021/10/16 10:33:22;;;;;;;2.33;2.20;;;26.40;32.00;;;;;;4771517;29;20077;-55
2021/10/16 10:36:21;;;;;;;2.70;2.50;;;26.40;32.00;;;;;;4769152;30;20056;-56
2021/10/16 10:38:48;;;;;;;2.33;2.13;;;26.40;31.90;;;;;;4762615;29;20075;-54
2021/10/16 10:41:31;;;;;;;3.03;2.72;;;26.40;31.90;;;;;;4771980;29;20118;-55
2021/10/16 10:44:00;;;;;;;2.58;2.38;;;26.40;32.00;;;;;;4770456;30;20080;-55
2021/10/16 10:46:29;;;;;;;2.70;2.30;;;26.50;32.00;;;;;;4774409;29;20083;-54
2021/10/16 10:49:10;;;;;;;2.75;2.55;;;26.50;32.00;;;;;;4772884;29;20121;-56
2021/10/16 10:51:38;;;;;;;2.63;2.42;;;26.50;31.90;;;;;;4782328;29;20094;-55
2021/10/16 10:54:16;;;;;;;4.05;3.53;;;26.50;31.90;;;;;;4782360;29;20047;-55
2021/10/16 10:56:47;;;;;;;2.15;1.95;;;26.50;31.90;;;;;;4782006;29;20051;-54
2021/10/16 10:59:16;;;;;;;2.33;2.13;;;26.50;31.90;;;;;;4773891;29;20626;-56
2021/10/16 11:01:53;;;;;;;2.05;1.92;;;26.50;31.90;;;;;;4781709;29;20063;-56
2021/10/16 11:04:39;;;;;;;2.15;2.05;;;26.60;31.90;;;;;;4780053;29;20766;-54
2021/10/16 11:07:11;;;;;;;1.95;1.85;;;26.60;32.50;;;;;;4781995;29;20047;-56
2021/10/16 11:09:40;;;;;;;2.50;2.30;;;26.60;32.50;;;;;;4773204;29;20055;-54
2021/10/16 11:12:09;;;;;;;2.30;2.20;;;26.60;31.90;;;;;;4782554;29;20083;-55
2021/10/16 11:14:39;;;;;;;2.60;2.40;;;26.70;31.90;;;;;;4780530;29;20055;-55
2021/10/16 11:17:08;;;;;;;;;;;26.70;31.90;;;;;;4781338;30;20059;-54
2021/10/16 11:19:54;;;;;;;2.03;1.75;;;26.70;31.90;;;;;;4773512;29;20020;-58
2021/10/16 11:22:38;;;;;;;2.20;2.00;;;26.70;31.90;;;;;;4780230;30;20055;-54
2021/10/16 11:25:06;;;;;;;2.47;2.28;;;26.70;31.90;;;;;;4781377;29;20055;-56
2021/10/16 11:27:33;;;;;;;2.50;2.30;;;26.70;31.80;;;;;;4777794;29;20130;-55
2021/10/16 11:30:02;;;;;;;2.72;2.50;;;26.80;31.90;;;;;;4777935;29;20142;-54
2021/10/16 11:32:33;;;;;;;2.28;2.08;;;26.80;31.80;;;;;;4780333;29;20295;-54
2021/10/16 11:35:04;;;;;;;2.05;1.90;;;26.80;31.80;;;;;;4781220;29;20488;-55
2021/10/16 11:37:47;;;;;;;2.17;2.05;;;26.80;31.70;;;;;;4777577;29;20109;-55
2021/10/16 11:40:20;;;;;;;2.22;2.05;;;26.90;31.80;;;;;;4776213;29;20047;-56
2021/10/16 11:42:50;;;;;;;2.30;2.10;;;26.90;31.80;;;;;;4781229;29;20086;-56
2021/10/16 11:45:20;;;;;;;2.00;1.90;;;26.90;31.70;;;;;;4779519;30;20157;-55
2021/10/16 11:47:53;;;;;;;1.77;1.67;;;26.90;31.70;;;;;;4778026;29;20685;-53
2021/10/16 11:50:26;;;;;;;1.70;1.60;;;26.90;31.70;;;;;;4775989;29;20174;-55
2021/10/16 11:53:18;;;;;;;2.08;1.73;;;26.90;31.60;;;;;;4780655;29;20109;-55
2021/10/16 11:55:57;;;;;;;2.28;2.08;;;27.00;31.70;;;;;;4780692;29;20513;-55
2021/10/16 11:58:26;;;;;;;2.00;1.90;;;27.00;31.70;;;;;;4775497;29;20100;-55
2021/10/16 12:00:55;;;;;;;1.75;1.65;;;27.00;31.70;;;;;;4778519;29;20059;-55
2021/10/16 12:03:28;;;;;;;1.85;1.75;;;27.00;31.60;;;;;;4781108;29;20139;-55
2021/10/16 12:05:56;;;;;;;2.03;1.83;;;27.00;31.70;;;;;;4780927;29;20094;-56
2021/10/16 12:08:29;;;;;;;1.63;1.52;;;27.00;31.60;;;;;;4774405;29;20944;-55
2021/10/16 12:10:58;;;;;;;2.05;1.95;;;27.00;31.60;;;;;;4778645;29;20051;-54
2021/10/16 12:13:43;;;;;;;2.00;1.90;;;27.00;31.60;;;;;;4781117;29;20137;-55
2021/10/16 12:16:16;;;;;;;2.75;1.90;;;27.00;31.60;;;;;;4780548;29;20221;-58
2021/10/16 12:18:59;;;;;;;1.70;1.60;;;27.00;31.60;;;;;;4772284;29;20138;-54
2021/10/16 12:21:38;;;;;;;2.38;2.17;;;27.00;31.60;;;;;;4778461;30;20082;-53
2021/10/16 12:24:24;;;;;;;1.85;1.75;;;27.00;31.60;;;;;;4780194;29;20086;-53
2021/10/16 12:27:09;;;;;;;1.88;1.73;;;27.00;31.60;;;;;;4780050;29;20138;-55
2021/10/16 12:29:38;;;;;;;1.80;1.70;;;27.00;31.60;;;;;;4772602;29;20566;-55
2021/10/16 12:32:07;;;;;;;1.40;1.30;;;27.00;31.60;;;;;;4779867;29;20100;-54
2021/10/16 12:34:36;;;;;;;1.80;1.70;;;27.00;31.60;;;;;;4781376;29;20063;-55
2021/10/16 12:37:06;;;;;;;1.80;1.70;;;27.00;31.60;;;;;;4781713;29;20143;-56
2021/10/16 12:39:38;;;;;;;1.95;1.50;;;27.00;31.60;;;;;;4771510;29;20138;-55
2021/10/16 12:42:14;;;;;;;1.60;1.50;;;27.00;31.60;;;;;;4780197;30;20048;-55
2021/10/16 12:44:50;;;;;;;1.80;1.70;;;27.00;31.60;;;;;;4780658;29;20051;-55
2021/10/16 12:47:29;;;;;;;2.22;2.03;;;27.00;31.60;;;;;;4780677;29;20081;-56
2021/10/16 12:50:03;;;;;;;1.65;1.55;;;27.10;31.70;;;;;;4775183;29;20494;-55
2021/10/16 12:52:36;;;;;;;1.60;1.50;;;27.10;31.60;;;;;;4780624;29;20517;-53
2021/10/16 12:55:21;;;;;;;1.70;1.60;;;27.00;31.50;;;;;;4779575;30;20078;-54